Japura, Brazil
Current Conditions -  °F | °C
As of 7:00 PM on Wednesday 17 Dec 2014 (Local Time) from SBTF Reporting Station
Broken Clouds Broken Clouds  
Wind Chill: 81°   Ceiling: 10000
Heat Index: 87°   Visibility: 6mi
Dew Point: 77°   Wind: 3mph
Humidity: 89%   Direction: 80°E
Pressure: 29.77"   Gusts: NA
Location:  1.83°S, 66.6°W
Report Text: SBTF 172300Z 08003KT 9999 FEW010 FEW025TCU BKN100 27/25 Q1008
Loading
Personal Weather Stations






























Interactive Weather Map New forecast layout! Learn more

10-Day Weather Forecast

Advertisements
Track Severe Weather on mobile